sensor_id;sensor_type;location;lat;lon;timestamp;pressure;altitude;pressure_sealevel;temperature;humidity
5877;BME280;2964;42.144;24.730;2022-12-01T00:00:07;143171.00;;;6.30;100.00
5877;BME280;2964;42.144;24.730;2022-12-01T00:02:34;143164.75;;;6.28;100.00
5877;BME280;2964;42.144;24.730;2022-12-01T00:05:00;143164.75;;;6.28;100.00
5877;BME280;2964;42.144;24.730;2022-12-01T00:07:27;143149.75;;;6.22;100.00
5877;BME280;2964;42.144;24.730;2022-12-01T00:09:54;143114.72;;;6.07;100.00
5877;BME280;2964;42.144;24.730;2022-12-01T00:12:39;143139.72;;;6.17;100.00
5877;BME280;2964;42.144;24.730;2022-12-01T00:15:08;143161.00;;;6.26;100.00
5877;BME280;2964;42.144;24.730;2022-12-01T00:17:35;143169.75;;;6.30;100.00
5877;BME280;2964;42.144;24.730;2022-12-01T00:20:02;143171.00;;;6.30;100.00
5877;BME280;2964;42.144;24.730;2022-12-01T00:22:29;143158.47;;;6.25;100.00
5877;BME280;2964;42.144;24.730;2022-12-01T00:24:56;143158.47;;;6.25;100.00
5877;BME280;2964;42.144;24.730;2022-12-01T00:27:22;143123.47;;;6.11;100.00
5877;BME280;2964;42.144;24.730;2022-12-01T00:29:50;143154.75;;;6.24;100.00
5877;BME280;2964;42.144;24.730;2022-12-01T00:32:17;143129.72;;;6.13;100.00
5877;BME280;2964;42.144;24.730;2022-12-01T00:34:43;143133.47;;;6.15;100.00
5877;BME280;2964;42.144;24.730;2022-12-01T00:37:10;143157.25;;;6.25;100.00
5877;BME280;2964;42.144;24.730;2022-12-01T00:39:37;143099.66;;;6.01;100.00
5877;BME280;2964;42.144;24.730;2022-12-01T00:42:03;143138.47;;;6.17;100.00
5877;BME280;2964;42.144;24.730;2022-12-01T00:44:30;143141.00;;;6.18;100.00
5877;BME280;2964;42.144;24.730;2022-12-01T00:46:58;143151.00;;;6.22;100.00
5877;BME280;2964;42.144;24.730;2022-12-01T00:49:25;143168.53;;;6.29;100.00
5877;BME280;2964;42.144;24.730;2022-12-01T00:51:51;143166.00;;;6.28;100.00
5877;BME280;2964;42.144;24.730;2022-12-01T00:54:18;143159.75;;;6.26;100.00
5877;BME280;2964;42.144;24.730;2022-12-01T00:56:45;143152.25;;;6.23;100.00
5877;BME280;2964;42.144;24.730;2022-12-01T00:59:12;143045.81;;;5.79;100.00
5877;BME280;2964;42.144;24.730;2022-12-01T01:01:38;143138.47;;;6.17;100.00
5877;BME280;2964;42.144;24.730;2022-12-01T01:04:06;143128.47;;;6.13;100.00
5877;BME280;2964;42.144;24.730;2022-12-01T01:06:33;143120.94;;;6.10;100.00
5877;BME280;2964;42.144;24.730;2022-12-01T01:09:00;143117.19;;;6.08;100.00
5877;BME280;2964;42.144;24.730;2022-12-01T01:11:26;143089.66;;;5.97;100.00
5877;BME280;2964;42.144;24.730;2022-12-01T01:13:53;143156.00;;;6.24;100.00
5877;BME280;2964;42.144;24.730;2022-12-01T01:16:20;143113.44;;;6.07;100.00
5877;BME280;2964;42.144;24.730;2022-12-01T01:18:47;143127.22;;;6.12;100.00
5877;BME280;2964;42.144;24.730;2022-12-01T01:21:18;143128.47;;;6.13;100.00
5877;BME280;2964;42.144;24.730;2022-12-01T01:23:45;143133.47;;;6.15;100.00
5877;BME280;2964;42.144;24.730;2022-12-01T01:26:14;143166.00;;;6.28;100.00
5877;BME280;2964;42.144;24.730;2022-12-01T01:28:41;143162.25;;;6.27;100.00
5877;BME280;2964;42.144;24.730;2022-12-01T01:31:10;143157.25;;;6.25;100.00
5877;BME280;2964;42.144;24.730;2022-12-01T01:33:37;143147.25;;;6.21;100.00
5877;BME280;2964;42.144;24.730;2022-12-01T01:36:05;143068.34;;;5.88;100.00
5877;BME280;2964;42.144;24.730;2022-12-01T01:38:33;143074.63;;;5.91;100.00
5877;BME280;2964;42.144;24.730;2022-12-01T01:41:00;143112.19;;;6.06;100.00
5877;BME280;2964;42.144;24.730;2022-12-01T01:43:41;143137.25;;;6.16;100.00
5877;BME280;2964;42.144;24.730;2022-12-01T01:46:10;143057.09;;;5.84;100.00
5877;BME280;2964;42.144;24.730;2022-12-01T01:48:38;143073.38;;;5.90;100.00
5877;BME280;2964;42.144;24.730;2022-12-01T01:51:06;143128.47;;;6.13;100.00
5877;BME280;2964;42.144;24.730;2022-12-01T01:53:36;143142.25;;;6.18;100.00
5877;BME280;2964;42.144;24.730;2022-12-01T01:56:03;143143.47;;;6.19;100.00
5877;BME280;2964;42.144;24.730;2022-12-01T01:58:32;143141.00;;;6.18;100.00
5877;BME280;2964;42.144;24.730;2022-12-01T02:00:59;143151.00;;;6.22;100.00
5877;BME280;2964;42.144;24.730;2022-12-01T02:03:27;143164.75;;;6.28;100.00
5877;BME280;2964;42.144;24.730;2022-12-01T02:05:55;143110.94;;;6.06;100.00
5877;BME280;2964;42.144;24.730;2022-12-01T02:08:21;143117.19;;;6.08;100.00
5877;BME280;2964;42.144;24.730;2022-12-01T02:11:04;143110.94;;;6.06;100.00
5877;BME280;2964;42.144;24.730;2022-12-01T02:13:45;143134.72;;;6.15;100.00
5877;BME280;2964;42.144;24.730;2022-12-01T02:16:24;143146.00;;;6.20;100.00
5877;BME280;2964;42.144;24.730;2022-12-01T02:19:00;143149.75;;;6.22;100.00
5877;BME280;2964;42.144;24.730;2022-12-01T02:21:40;143143.47;;;6.19;100.00
5877;BME280;2964;42.144;24.730;2022-12-01T02:27:41;143107.19;;;6.04;100.00
5877;BME280;2964;42.144;24.730;2022-12-01T02:30:13;143119.72;;;6.09;100.00
5877;BME280;2964;42.144;24.730;2022-12-01T02:32:53;143040.81;;;5.77;100.00
5877;BME280;2964;42.144;24.730;2022-12-01T02:35:32;143125.94;;;6.12;100.00
5877;BME280;2964;42.144;24.730;2022-12-01T02:38:08;143143.47;;;6.19;100.00
5877;BME280;2964;42.144;24.730;2022-12-01T02:40:39;143115.94;;;6.08;100.00
5877;BME280;2964;42.144;24.730;2022-12-01T02:43:12;143133.47;;;6.15;100.00
5877;BME280;2964;42.144;24.730;2022-12-01T02:45:45;143159.75;;;6.26;100.00
5877;BME280;2964;42.144;24.730;2022-12-01T02:48:20;143141.00;;;6.18;100.00
5877;BME280;2964;42.144;24.730;2022-12-01T02:50:50;143093.44;;;5.98;100.00
5877;BME280;2964;42.144;24.730;2022-12-01T02:53:18;143075.84;;;5.91;100.00
5877;BME280;2964;42.144;24.730;2022-12-01T02:55:50;143115.94;;;6.08;100.00
5877;BME280;2964;42.144;24.730;2022-12-01T02:58:17;143045.81;;;5.79;100.00
5877;BME280;2964;42.144;24.730;2022-12-01T03:01:00;142960.78;;;5.44;100.00
5877;BME280;2964;42.144;24.730;2022-12-01T03:03:59;143108.44;;;6.05;100.00
5877;BME280;2964;42.144;24.730;2022-12-01T03:06:39;143138.47;;;6.17;100.00
5877;BME280;2964;42.144;24.730;2022-12-01T03:09:16;143110.94;;;6.06;100.00
5877;BME280;2964;42.144;24.730;2022-12-01T03:11:55;143112.19;;;6.06;100.00
5877;BME280;2964;42.144;24.730;2022-12-01T03:14:32;143083.38;;;5.94;100.00
5877;BME280;2964;42.144;24.730;2022-12-01T03:17:04;143080.84;;;5.93;100.00
5877;BME280;2964;42.144;24.730;2022-12-01T03:19:36;143103.44;;;6.03;100.00
5877;BME280;2964;42.144;24.730;2022-12-01T03:22:09;143109.72;;;6.05;100.00
5877;BME280;2964;42.144;24.730;2022-12-01T03:24:38;143130.94;;;6.14;100.00
5877;BME280;2964;42.144;24.730;2022-12-01T03:27:07;143156.00;;;6.24;100.00
5877;BME280;2964;42.144;24.730;2022-12-01T03:29:38;143139.72;;;6.17;100.00
5877;BME280;2964;42.144;24.730;2022-12-01T03:32:11;143133.47;;;6.15;100.00
5877;BME280;2964;42.144;24.730;2022-12-01T03:34:42;143143.47;;;6.19;100.00
5877;BME280;2964;42.144;24.730;2022-12-01T03:37:16;143128.47;;;6.13;100.00
5877;BME280;2964;42.144;24.730;2022-12-01T03:39:46;143109.72;;;6.05;100.00
5877;BME280;2964;42.144;24.730;2022-12-01T03:42:17;143073.38;;;5.90;100.00
5877;BME280;2964;42.144;24.730;2022-12-01T03:44:48;143110.94;;;6.06;100.00
5877;BME280;2964;42.144;24.730;2022-12-01T03:47:18;143113.44;;;6.07;100.00
5877;BME280;2964;42.144;24.730;2022-12-01T03:49:49;143105.94;;;6.04;100.00
5877;BME280;2964;42.144;24.730;2022-12-01T03:52:24;143167.25;;;6.29;100.00
5877;BME280;2964;42.144;24.730;2022-12-01T03:55:05;143109.72;;;6.05;100.00
5877;BME280;2964;42.144;24.730;2022-12-01T03:57:40;143115.94;;;6.08;100.00
5877;BME280;2964;42.144;24.730;2022-12-01T04:00:10;143147.25;;;6.21;100.00
5877;BME280;2964;42.144;24.730;2022-12-01T04:02:37;143132.25;;;6.14;100.00
5877;BME280;2964;42.144;24.730;2022-12-01T04:05:06;143162.25;;;6.27;100.00
5877;BME280;2964;42.144;24.730;2022-12-01T04:07:34;143171.00;;;6.30;100.00
5877;BME280;2964;42.144;24.730;2022-12-01T04:10:00;143146.00;;;6.20;100.00
5877;BME280;2964;42.144;24.730;2022-12-01T04:12:27;143177.28;;;6.33;100.00
5877;BME280;2964;42.144;24.730;2022-12-01T04:14:58;143169.75;;;6.30;100.00
5877;BME280;2964;42.144;24.730;2022-12-01T04:17:25;143181.06;;;6.34;100.00
5877;BME280;2964;42.144;24.730;2022-12-01T04:19:52;143139.72;;;6.17;100.00
5877;BME280;2964;42.144;24.730;2022-12-01T04:22:20;143146.00;;;6.20;100.00
5877;BME280;2964;42.144;24.730;2022-12-01T04:24:47;143058.34;;;5.84;100.00
5877;BME280;2964;42.144;24.730;2022-12-01T04:27:14;143124.72;;;6.11;100.00
5877;BME280;2964;42.144;24.730;2022-12-01T04:29:40;143125.94;;;6.12;100.00
5877;BME280;2964;42.144;24.730;2022-12-01T04:32:07;143125.94;;;6.12;100.00
5877;BME280;2964;42.144;24.730;2022-12-01T04:34:34;143135.94;;;6.16;100.00
5877;BME280;2964;42.144;24.730;2022-12-01T04:37:00;143148.47;;;6.21;100.00
5877;BME280;2964;42.144;24.730;2022-12-01T04:39:28;143068.34;;;5.88;100.00
5877;BME280;2964;42.144;24.730;2022-12-01T04:41:55;143141.00;;;6.18;100.00
5877;BME280;2964;42.144;24.730;2022-12-01T04:44:21;143123.47;;;6.11;100.00
5877;BME280;2964;42.144;24.730;2022-12-01T04:46:50;143125.94;;;6.12;100.00
5877;BME280;2964;42.144;24.730;2022-12-01T04:49:17;143128.47;;;6.13;100.00
5877;BME280;2964;42.144;24.730;2022-12-01T04:51:45;143133.47;;;6.15;100.00
5877;BME280;2964;42.144;24.730;2022-12-01T04:54:12;143039.56;;;5.76;100.00
5877;BME280;2964;42.144;24.730;2022-12-01T04:56:40;143093.44;;;5.98;100.00
5877;BME280;2964;42.144;24.730;2022-12-01T04:59:07;143077.09;;;5.92;100.00
5877;BME280;2964;42.144;24.730;2022-12-01T05:01:34;143122.19;;;6.10;100.00
5877;BME280;2964;42.144;24.730;2022-12-01T05:04:01;143045.81;;;5.79;100.00
5877;BME280;2964;42.144;24.730;2022-12-01T05:06:28;143125.94;;;6.12;100.00
5877;BME280;2964;42.144;24.730;2022-12-01T05:08:57;143115.94;;;6.08;100.00
5877;BME280;2964;42.144;24.730;2022-12-01T05:11:25;143109.72;;;6.05;100.00
5877;BME280;2964;42.144;24.730;2022-12-01T05:13:54;143113.44;;;6.07;100.00
5877;BME280;2964;42.144;24.730;2022-12-01T05:16:22;143123.47;;;6.11;100.00
5877;BME280;2964;42.144;24.730;2022-12-01T05:18:50;143142.25;;;6.18;100.00
5877;BME280;2964;42.144;24.730;2022-12-01T05:21:37;143093.44;;;5.98;100.00
5877;BME280;2964;42.144;24.730;2022-12-01T05:24:04;143065.84;;;5.87;100.00
5877;BME280;2964;42.144;24.730;2022-12-01T05:26:30;143143.47;;;6.19;100.00
5877;BME280;2964;42.144;24.730;2022-12-01T05:28:58;143134.72;;;6.15;100.00
5877;BME280;2964;42.144;24.730;2022-12-01T05:31:25;143149.75;;;6.22;100.00
5877;BME280;2964;42.144;24.730;2022-12-01T05:33:52;143144.72;;;6.19;100.00
5877;BME280;2964;42.144;24.730;2022-12-01T05:36:18;143167.25;;;6.29;100.00
5877;BME280;2964;42.144;24.730;2022-12-01T05:38:45;143163.53;;;6.27;100.00
5877;BME280;2964;42.144;24.730;2022-12-01T05:41:12;143141.00;;;6.18;100.00
5877;BME280;2964;42.144;24.730;2022-12-01T05:43:38;143133.47;;;6.15;100.00
5877;BME280;2964;42.144;24.730;2022-12-01T05:46:07;143120.94;;;6.10;100.00
5877;BME280;2964;42.144;24.730;2022-12-01T05:48:33;143152.25;;;6.23;100.00
5877;BME280;2964;42.144;24.730;2022-12-01T05:51:06;143133.47;;;6.15;100.00
5877;BME280;2964;42.144;24.730;2022-12-01T05:53:33;143151.00;;;6.22;100.00
5877;BME280;2964;42.144;24.730;2022-12-01T05:56:00;143128.47;;;6.13;100.00
5877;BME280;2964;42.144;24.730;2022-12-01T05:58:26;143154.75;;;6.24;100.00
5877;BME280;2964;42.144;24.730;2022-12-01T06:00:53;143115.94;;;6.08;100.00
5877;BME280;2964;42.144;24.730;2022-12-01T06:03:21;143128.47;;;6.13;100.00
5877;BME280;2964;42.144;24.730;2022-12-01T06:05:48;143129.72;;;6.13;100.00
5877;BME280;2964;42.144;24.730;2022-12-01T06:08:15;143132.25;;;6.14;100.00
5877;BME280;2964;42.144;24.730;2022-12-01T06:10:41;143060.84;;;5.85;100.00
5877;BME280;2964;42.144;24.730;2022-12-01T06:13:08;143119.72;;;6.09;100.00
5877;BME280;2964;42.144;24.730;2022-12-01T06:15:35;143142.25;;;6.18;100.00
5877;BME280;2964;42.144;24.730;2022-12-01T06:18:01;143093.44;;;5.98;100.00
5877;BME280;2964;42.144;24.730;2022-12-01T06:20:29;143022.06;;;5.69;100.00
5877;BME280;2964;42.144;24.730;2022-12-01T06:22:57;143094.66;;;5.99;100.00
5877;BME280;2964;42.144;24.730;2022-12-01T06:25:24;143100.94;;;6.02;100.00
5877;BME280;2964;42.144;24.730;2022-12-01T06:27:54;143069.63;;;5.89;100.00
5877;BME280;2964;42.144;24.730;2022-12-01T06:30:21;143082.13;;;5.94;100.00
5877;BME280;2964;42.144;24.730;2022-12-01T06:32:47;143093.44;;;5.98;100.00
5877;BME280;2964;42.144;24.730;2022-12-01T06:35:14;143093.44;;;5.98;100.00
5877;BME280;2964;42.144;24.730;2022-12-01T06:37:42;143078.38;;;5.92;100.00
5877;BME280;2964;42.144;24.730;2022-12-01T06:40:10;143093.44;;;5.98;100.00
5877;BME280;2964;42.144;24.730;2022-12-01T06:42:37;143105.94;;;6.04;100.00
5877;BME280;2964;42.144;24.730;2022-12-01T06:45:04;143083.38;;;5.94;100.00
5877;BME280;2964;42.144;24.730;2022-12-01T06:47:31;143075.84;;;5.91;100.00
5877;BME280;2964;42.144;24.730;2022-12-01T06:49:58;143090.91;;;5.97;100.00
5877;BME280;2964;42.144;24.730;2022-12-01T06:52:25;143100.94;;;6.02;100.00
5877;BME280;2964;42.144;24.730;2022-12-01T06:54:52;143075.84;;;5.91;100.00
5877;BME280;2964;42.144;24.730;2022-12-01T06:57:19;143070.84;;;5.89;100.00
5877;BME280;2964;42.144;24.730;2022-12-01T06:59:46;143074.63;;;5.91;100.00
5877;BME280;2964;42.144;24.730;2022-12-01T07:02:12;143079.63;;;5.93;100.00
5877;BME280;2964;42.144;24.730;2022-12-01T07:04:39;143079.63;;;5.93;100.00
5877;BME280;2964;42.144;24.730;2022-12-01T07:07:06;143063.34;;;5.86;100.00
5877;BME280;2964;42.144;24.730;2022-12-01T07:09:33;143062.09;;;5.86;100.00
5877;BME280;2964;42.144;24.730;2022-12-01T07:12:01;143044.56;;;5.78;100.00
5877;BME280;2964;42.144;24.730;2022-12-01T07:14:28;143078.38;;;5.92;100.00
5877;BME280;2964;42.144;24.730;2022-12-01T07:16:55;143088.44;;;5.96;100.00
5877;BME280;2964;42.144;24.730;2022-12-01T07:19:22;143038.34;;;5.76;100.00
5877;BME280;2964;42.144;24.730;2022-12-01T07:21:49;143084.63;;;5.95;100.00
5877;BME280;2964;42.144;24.730;2022-12-01T07:24:16;143033.34;;;5.74;100.00
5877;BME280;2964;42.144;24.730;2022-12-01T07:26:43;143107.19;;;6.04;100.00
5877;BME280;2964;42.144;24.730;2022-12-01T07:29:11;143115.94;;;6.08;100.00
5877;BME280;2964;42.144;24.730;2022-12-01T07:31:38;143118.47;;;6.09;100.00
5877;BME280;2964;42.144;24.730;2022-12-01T07:34:05;143044.56;;;5.78;100.00
5877;BME280;2964;42.144;24.730;2022-12-01T07:36:32;143030.81;;;5.73;100.00
5877;BME280;2964;42.144;24.730;2022-12-01T07:38:59;143072.09;;;5.90;100.00
5877;BME280;2964;42.144;24.730;2022-12-01T07:41:25;143077.09;;;5.92;100.00
5877;BME280;2964;42.144;24.730;2022-12-01T07:43:54;143125.94;;;6.12;100.00
5877;BME280;2964;42.144;24.730;2022-12-01T07:46:24;143102.19;;;6.02;100.00
5877;BME280;2964;42.144;24.730;2022-12-01T07:48:51;143117.19;;;6.08;100.00
5877;BME280;2964;42.144;24.730;2022-12-01T07:51:19;143098.44;;;6.01;100.00
5877;BME280;2964;42.144;24.730;2022-12-01T07:53:47;143065.84;;;5.87;100.00
5877;BME280;2964;42.144;24.730;2022-12-01T07:56:15;143090.91;;;5.97;100.00
5877;BME280;2964;42.144;24.730;2022-12-01T07:58:42;143077.09;;;5.92;100.00
5877;BME280;2964;42.144;24.730;2022-12-01T08:01:11;143063.34;;;5.86;100.00
5877;BME280;2964;42.144;24.730;2022-12-01T08:03:39;143053.34;;;5.82;100.00
5877;BME280;2964;42.144;24.730;2022-12-01T08:06:07;143064.63;;;5.87;100.00
5877;BME280;2964;42.144;24.730;2022-12-01T08:08:37;143069.63;;;5.89;100.00
5877;BME280;2964;42.144;24.730;2022-12-01T08:11:06;143098.44;;;6.01;100.00
5877;BME280;2964;42.144;24.730;2022-12-01T08:13:33;143125.94;;;6.12;100.00
5877;BME280;2964;42.144;24.730;2022-12-01T08:16:02;143107.19;;;6.04;100.00
5877;BME280;2964;42.144;24.730;2022-12-01T08:18:29;143100.94;;;6.02;100.00
5877;BME280;2964;42.144;24.730;2022-12-01T08:20:57;143108.44;;;6.05;100.00
5877;BME280;2964;42.144;24.730;2022-12-01T08:23:24;143128.47;;;6.13;100.00
5877;BME280;2964;42.144;24.730;2022-12-01T08:25:51;143110.94;;;6.06;100.00
5877;BME280;2964;42.144;24.730;2022-12-01T08:28:18;143109.72;;;6.05;100.00
5877;BME280;2964;42.144;24.730;2022-12-01T08:30:45;143120.94;;;6.10;100.00
5877;BME280;2964;42.144;24.730;2022-12-01T08:33:11;143093.44;;;5.98;100.00
5877;BME280;2964;42.144;24.730;2022-12-01T08:35:38;143089.66;;;5.97;100.00
5877;BME280;2964;42.144;24.730;2022-12-01T08:38:07;143062.09;;;5.86;100.00
5877;BME280;2964;42.144;24.730;2022-12-01T08:40:34;143043.34;;;5.78;100.00
5877;BME280;2964;42.144;24.730;2022-12-01T08:43:01;143074.63;;;5.91;100.00
5877;BME280;2964;42.144;24.730;2022-12-01T08:45:27;143078.38;;;5.92;100.00
5877;BME280;2964;42.144;24.730;2022-12-01T08:47:54;143082.13;;;5.94;100.00
5877;BME280;2964;42.144;24.730;2022-12-01T08:50:23;143113.44;;;6.07;100.00
5877;BME280;2964;42.144;24.730;2022-12-01T08:52:49;143095.94;;;5.99;100.00
5877;BME280;2964;42.144;24.730;2022-12-01T08:55:18;143104.72;;;6.03;100.00
5877;BME280;2964;42.144;24.730;2022-12-01T08:57:45;143093.44;;;5.98;100.00
5877;BME280;2964;42.144;24.730;2022-12-01T09:00:13;143089.66;;;5.97;100.00
5877;BME280;2964;42.144;24.730;2022-12-01T09:02:39;143084.63;;;5.95;100.00
5877;BME280;2964;42.144;24.730;2022-12-01T09:05:07;143070.84;;;5.89;100.00
5877;BME280;2964;42.144;24.730;2022-12-01T09:07:33;143113.44;;;6.07;100.00
5877;BME280;2964;42.144;24.730;2022-12-01T09:10:00;143108.44;;;6.05;100.00
5877;BME280;2964;42.144;24.730;2022-12-01T09:12:28;143134.72;;;6.15;100.00
5877;BME280;2964;42.144;24.730;2022-12-01T09:14:55;143151.00;;;6.22;100.00
5877;BME280;2964;42.144;24.730;2022-12-01T09:17:22;143153.47;;;6.23;100.00
5877;BME280;2964;42.144;24.730;2022-12-01T09:19:49;143157.25;;;6.25;100.00
5877;BME280;2964;42.144;24.730;2022-12-01T09:22:15;143158.47;;;6.25;100.00
5877;BME280;2964;42.144;24.730;2022-12-01T09:24:42;143173.53;;;6.31;100.00
5877;BME280;2964;42.144;24.730;2022-12-01T09:27:09;143177.28;;;6.33;100.00
5877;BME280;2964;42.144;24.730;2022-12-01T09:29:37;143168.53;;;6.29;100.00
5877;BME280;2964;42.144;24.730;2022-12-01T09:32:04;143188.53;;;6.37;100.00
5877;BME280;2964;42.144;24.730;2022-12-01T09:34:30;143161.00;;;6.26;100.00
5877;BME280;2964;42.144;24.730;2022-12-01T09:36:57;143166.00;;;6.28;100.00
5877;BME280;2964;42.144;24.730;2022-12-01T09:39:24;143204.81;;;6.44;100.00
5877;BME280;2964;42.144;24.730;2022-12-01T09:41:54;143142.25;;;6.18;100.00
5877;BME280;2964;42.144;24.730;2022-12-01T09:44:37;143192.28;;;6.39;100.00
5877;BME280;2964;42.144;24.730;2022-12-01T09:47:09;143183.53;;;6.35;100.00
5877;BME280;2964;42.144;24.730;2022-12-01T09:49:48;143193.53;;;6.40;100.00
5877;BME280;2964;42.144;24.730;2022-12-01T09:52:19;143188.53;;;6.37;100.00
5877;BME280;2964;42.144;24.730;2022-12-01T09:54:47;143138.47;;;6.17;100.00
5877;BME280;2964;42.144;24.730;2022-12-01T09:57:16;143173.53;;;6.31;100.00
5877;BME280;2964;42.144;24.730;2022-12-01T09:59:49;143223.59;;;6.52;100.00
5877;BME280;2964;42.144;24.730;2022-12-01T10:02:25;143236.13;;;6.57;100.00
5877;BME280;2964;42.144;24.730;2022-12-01T10:04:55;143224.84;;;6.52;100.00
5877;BME280;2964;42.144;24.730;2022-12-01T10:07:27;143198.53;;;6.42;100.00
5877;BME280;2964;42.144;24.730;2022-12-01T10:09:57;143248.66;;;6.62;100.00
5877;BME280;2964;42.144;24.730;2022-12-01T10:12:29;143251.13;;;6.63;100.00
5877;BME280;2964;42.144;24.730;2022-12-01T10:15:12;143246.13;;;6.61;100.00
5877;BME280;2964;42.144;24.730;2022-12-01T10:17:45;143269.91;;;6.71;100.00
5877;BME280;2964;42.144;24.730;2022-12-01T10:20:20;143266.13;;;6.69;100.00
5877;BME280;2964;42.144;24.730;2022-12-01T10:23:07;143284.97;;;6.77;100.00
5877;BME280;2964;42.144;24.730;2022-12-01T10:25:42;143089.66;;;5.97;100.00
5877;BME280;2964;42.144;24.730;2022-12-01T10:28:27;143292.44;;;6.80;100.00
5877;BME280;2964;42.144;24.730;2022-12-01T10:31:03;143281.19;;;6.75;100.00
5877;BME280;2964;42.144;24.730;2022-12-01T10:33:36;143248.66;;;6.62;100.00
5877;BME280;2964;42.144;24.730;2022-12-01T10:36:06;143252.38;;;6.64;100.00
5877;BME280;2964;42.144;24.730;2022-12-01T10:38:36;143251.13;;;6.63;100.00
5877;BME280;2964;42.144;24.730;2022-12-01T10:41:05;143263.66;;;6.68;100.00
5877;BME280;2964;42.144;24.730;2022-12-01T10:43:39;143261.13;;;6.67;100.00
5877;BME280;2964;42.144;24.730;2022-12-01T10:46:19;143261.13;;;6.67;100.00
5877;BME280;2964;42.144;24.730;2022-12-01T10:48:53;143237.38;;;6.57;100.00
5877;BME280;2964;42.144;24.730;2022-12-01T10:51:20;143263.66;;;6.68;100.00
5877;BME280;2964;42.144;24.730;2022-12-01T10:53:48;143186.06;;;6.36;100.00
5877;BME280;2964;42.144;24.730;2022-12-01T10:56:16;143204.81;;;6.44;100.00
5877;BME280;2964;42.144;24.730;2022-12-01T10:58:45;143256.13;;;6.65;100.00
5877;BME280;2964;42.144;24.730;2022-12-01T11:01:20;143261.13;;;6.67;100.00
5877;BME280;2964;42.144;24.730;2022-12-01T11:03:50;143252.38;;;6.64;100.00
5877;BME280;2964;42.144;24.730;2022-12-01T11:06:21;143159.75;;;6.26;100.00
5877;BME280;2964;42.144;24.730;2022-12-01T11:08:52;143262.44;;;6.68;100.00
5877;BME280;2964;42.144;24.730;2022-12-01T11:11:27;143229.84;;;6.54;100.00
5877;BME280;2964;42.144;24.730;2022-12-01T11:13:55;143248.66;;;6.62;100.00
5877;BME280;2964;42.144;24.730;2022-12-01T11:16:39;143264.91;;;6.69;100.00
5877;BME280;2964;42.144;24.730;2022-12-01T11:19:08;143276.19;;;6.73;100.00
5877;BME280;2964;42.144;24.730;2022-12-01T11:21:44;143261.13;;;6.67;100.00
5877;BME280;2964;42.144;24.730;2022-12-01T11:24:24;143238.59;;;6.58;100.00
5877;BME280;2964;42.144;24.730;2022-12-01T11:26:52;143267.44;;;6.70;100.00
5877;BME280;2964;42.144;24.730;2022-12-01T11:29:28;143248.66;;;6.62;100.00
5877;BME280;2964;42.144;24.730;2022-12-01T11:31:58;143252.38;;;6.64;100.00
5877;BME280;2964;42.144;24.730;2022-12-01T11:34:27;143237.38;;;6.57;100.00
5877;BME280;2964;42.144;24.730;2022-12-01T11:36:57;143223.59;;;6.52;100.00
5877;BME280;2964;42.144;24.730;2022-12-01T11:39:26;143216.06;;;6.49;100.00
5877;BME280;2964;42.144;24.730;2022-12-01T11:41:58;143189.78;;;6.38;100.00
5877;BME280;2964;42.144;24.730;2022-12-01T11:44:26;143231.13;;;6.55;100.00
5877;BME280;2964;42.144;24.730;2022-12-01T11:47:10;143135.94;;;6.16;100.00
5877;BME280;2964;42.144;24.730;2022-12-01T11:49:39;143244.88;;;6.61;100.00
5877;BME280;2964;42.144;24.730;2022-12-01T11:52:17;143242.38;;;6.60;100.00
5877;BME280;2964;42.144;24.730;2022-12-01T11:54:54;143232.38;;;6.55;100.00
5877;BME280;2964;42.144;24.730;2022-12-01T11:57:21;143193.53;;;6.40;100.00
5877;BME280;2964;42.144;24.730;2022-12-01T11:59:48;143251.13;;;6.63;100.00
5877;BME280;2964;42.144;24.730;2022-12-01T12:02:22;143206.06;;;6.45;100.00
5877;BME280;2964;42.144;24.730;2022-12-01T12:05:17;143236.13;;;6.57;100.00
5877;BME280;2964;42.144;24.730;2022-12-01T12:07:58;143191.06;;;6.38;100.00
5877;BME280;2964;42.144;24.730;2022-12-01T12:10:37;143229.84;;;6.54;100.00
5877;BME280;2964;42.144;24.730;2022-12-01T12:13:32;143247.38;;;6.62;100.00
5877;BME280;2964;42.144;24.730;2022-12-01T12:16:07;143252.38;;;6.64;100.00
5877;BME280;2964;42.144;24.730;2022-12-01T12:18:48;143202.31;;;6.43;100.00
5877;BME280;2964;42.144;24.730;2022-12-01T12:21:28;143234.84;;;6.56;100.00
5877;BME280;2964;42.144;24.730;2022-12-01T12:24:18;143228.59;;;6.54;100.00
5877;BME280;2964;42.144;24.730;2022-12-01T12:26:56;143213.59;;;6.48;100.00
5877;BME280;2964;42.144;24.730;2022-12-01T12:29:37;143252.38;;;6.64;100.00
5877;BME280;2964;42.144;24.730;2022-12-01T12:32:32;143256.13;;;6.65;100.00
5877;BME280;2964;42.144;24.730;2022-12-01T12:35:14;143273.66;;;6.72;100.00
5877;BME280;2964;42.144;24.730;2022-12-01T12:37:51;143278.69;;;6.74;100.00
5877;BME280;2964;42.144;24.730;2022-12-01T12:40:40;143277.44;;;6.74;100.00
5877;BME280;2964;42.144;24.730;2022-12-01T12:43:20;143261.13;;;6.67;100.00
5877;BME280;2964;42.144;24.730;2022-12-01T12:45:57;143306.22;;;6.86;100.00
5877;BME280;2964;42.144;24.730;2022-12-01T12:48:44;143342.53;;;7.01;100.00
5877;BME280;2964;42.144;24.730;2022-12-01T12:51:18;143238.59;;;6.58;100.00
5877;BME280;2964;42.144;24.730;2022-12-01T12:53:50;143242.38;;;6.60;100.00
5877;BME280;2964;42.144;24.730;2022-12-01T12:56:20;143342.53;;;7.01;100.00
5877;BME280;2964;42.144;24.730;2022-12-01T12:58:55;143325.03;;;6.93;100.00
5877;BME280;2964;42.144;24.730;2022-12-01T13:01:26;143337.53;;;6.99;100.00
5877;BME280;2964;42.144;24.730;2022-12-01T13:03:57;143328.75;;;6.95;100.00
5877;BME280;2964;42.144;24.730;2022-12-01T13:06:31;143330.03;;;6.95;100.00
5877;BME280;2964;42.144;24.730;2022-12-01T13:09:04;143303.72;;;6.85;100.00
5877;BME280;2964;42.144;24.730;2022-12-01T13:11:37;143306.22;;;6.86;100.00
5877;BME280;2964;42.144;24.730;2022-12-01T13:14:14;143328.75;;;6.95;100.00
5877;BME280;2964;42.144;24.730;2022-12-01T13:16:44;143298.72;;;6.83;100.00
5877;BME280;2964;42.144;24.730;2022-12-01T13:19:14;143348.81;;;7.03;100.00